Time;durP1;ratioP1;P1;durP2;ratioP2;P2;SDS_P1;SDS_P2;PMS_P1;PMS_P2;Temp;Humidity;BMP_temperature;BMP_pressure;BME280_temperature;BME280_humidity;BME280_pressure;Samples;Min_cycle;Max_cycle;Signal;HPM_P1;HPM_P2
2021/11/06 00:00:56;;;;;;;1.00;0.80;;;11.10;99.90;;;;;;5061977;28;20205;-72
2021/11/06 00:03:23;;;;;;;1.80;1.10;;;11.10;99.90;;;;;;5054733;28;20208;-73
2021/11/06 00:05:50;;;;;;;1.50;0.90;;;11.10;99.90;;;;;;5055508;28;20228;-72
2021/11/06 00:08:17;;;;;;;0.60;0.60;;;11.10;99.90;;;;;;5053424;28;20223;-72
2021/11/06 00:10:44;;;;;;;1.37;0.87;;;11.10;99.90;;;;;;5040001;28;20237;-72
2021/11/06 00:13:11;;;;;;;0.70;0.70;;;11.10;99.90;;;;;;5053234;28;20206;-72
2021/11/06 00:15:38;;;;;;;1.20;0.70;;;11.10;99.90;;;;;;5063104;28;20191;-72
2021/11/06 00:18:07;;;;;;;1.53;1.10;;;11.10;99.90;;;;;;5054464;28;20617;-72
2021/11/06 00:20:34;;;;;;;1.57;1.00;;;11.10;99.90;;;;;;5063608;28;20619;-72
2021/11/06 00:23:01;;;;;;;1.80;0.70;;;11.10;99.90;;;;;;5053962;28;20207;-72
2021/11/06 00:25:28;;;;;;;0.87;0.83;;;11.10;99.90;;;;;;5060561;28;20300;-72
2021/11/06 00:27:55;;;;;;;2.07;0.80;;;11.10;99.90;;;;;;5051106;28;20696;-72
2021/11/06 00:30:22;;;;;;;0.70;0.70;;;11.10;99.90;;;;;;5058253;28;20311;-72
2021/11/06 00:32:49;;;;;;;0.77;0.77;;;11.10;99.90;;;;;;5047990;28;20214;-72
2021/11/06 00:35:18;;;;;;;0.73;0.73;;;11.20;99.90;;;;;;5055138;28;20204;-72
2021/11/06 00:37:46;;;;;;;1.10;0.70;;;11.10;99.90;;;;;;5046354;28;20254;-72
2021/11/06 00:40:15;;;;;;;1.17;0.93;;;11.10;99.90;;;;;;5052904;28;20191;-72
2021/11/06 00:42:42;;;;;;;1.63;0.90;;;11.20;99.90;;;;;;5044575;28;20288;-73
2021/11/06 00:45:10;;;;;;;2.10;0.80;;;11.20;99.90;;;;;;5069216;28;20730;-72
2021/11/06 00:47:38;;;;;;;0.53;0.53;;;11.20;99.90;;;;;;5069020;28;20256;-72
2021/11/06 00:50:08;;;;;;;1.07;0.60;;;11.20;99.90;;;;;;5067952;28;20200;-72
2021/11/06 00:52:36;;;;;;;1.20;0.60;;;11.20;99.90;;;;;;5053660;28;20193;-72
2021/11/06 00:55:05;;;;;;;0.70;0.70;;;11.20;99.90;;;;;;5064027;28;20284;-72
2021/11/06 00:57:32;;;;;;;1.07;0.90;;;11.20;99.90;;;;;;5057984;28;20481;-72
2021/11/06 00:59:59;;;;;;;0.80;0.77;;;11.30;99.90;;;;;;5060335;28;20628;-72
2021/11/06 01:02:26;;;;;;;0.50;0.50;;;11.30;99.90;;;;;;5052667;28;20668;-72
2021/11/06 01:04:53;;;;;;;0.60;0.60;;;11.30;99.90;;;;;;5056902;28;20212;-72
2021/11/06 01:07:20;;;;;;;0.97;0.77;;;11.30;99.90;;;;;;5057887;28;20223;-72
2021/11/06 01:09:48;;;;;;;0.50;0.50;;;11.30;99.90;;;;;;5061203;28;20258;-72
2021/11/06 01:12:15;;;;;;;0.50;0.50;;;11.40;99.90;;;;;;5058933;28;20196;-72
2021/11/06 01:14:42;;;;;;;0.60;0.60;;;11.90;99.90;;;;;;5052250;28;20202;-72
2021/11/06 01:17:09;;;;;;;0.50;0.50;;;11.40;99.90;;;;;;5055434;28;20239;-73
2021/11/06 01:19:36;;;;;;;0.50;0.50;;;11.40;99.90;;;;;;5051044;28;20206;-73
2021/11/06 01:22:05;;;;;;;0.77;0.60;;;11.50;99.90;;;;;;5056437;28;20523;-72
2021/11/06 01:24:32;;;;;;;0.60;0.60;;;11.40;99.90;;;;;;5049087;28;20396;-71
2021/11/06 01:27:01;;;;;;;1.13;0.60;;;11.50;99.90;;;;;;5053695;28;20699;-71
2021/11/06 01:29:27;;;;;;;0.40;0.40;;;11.50;99.90;;;;;;5046652;28;20435;-72
2021/11/06 01:31:55;;;;;;;0.90;0.60;;;11.50;99.90;;;;;;5052592;28;20189;-72
2021/11/06 01:34:22;;;;;;;0.50;0.50;;;11.50;99.90;;;;;;5047121;28;20200;-72
2021/11/06 01:36:49;;;;;;;0.57;0.50;;;11.50;99.90;;;;;;5050780;28;20201;-72
2021/11/06 01:39:16;;;;;;;0.53;0.50;;;11.50;99.90;;;;;;5042629;28;20645;-72
2021/11/06 01:41:43;;;;;;;0.47;0.47;;;11.50;99.90;;;;;;5047649;28;20243;-72
2021/11/06 01:44:11;;;;;;;1.00;0.43;;;11.50;99.90;;;;;;5066864;28;20190;-72
2021/11/06 01:46:38;;;;;;;0.40;0.40;;;11.50;99.90;;;;;;5067686;28;20239;-72
2021/11/06 01:49:05;;;;;;;1.13;0.30;;;11.50;99.90;;;;;;5064541;28;20201;-72
2021/11/06 01:51:32;;;;;;;0.60;0.50;;;11.50;99.90;;;;;;5060591;28;20201;-72
2021/11/06 01:53:59;;;;;;;1.03;0.60;;;11.50;99.90;;;;;;5062772;28;20288;-72
2021/11/06 01:56:26;;;;;;;0.50;0.40;;;11.50;99.90;;;;;;5058435;28;20192;-72
2021/11/06 01:58:53;;;;;;;0.37;0.37;;;11.50;99.90;;;;;;5061596;28;20193;-72
2021/11/06 02:01:21;;;;;;;0.30;0.30;;;11.50;99.90;;;;;;5067324;28;20206;-72
2021/11/06 02:03:49;;;;;;;0.67;0.30;;;11.60;99.90;;;;;;5059085;28;20216;-72
2021/11/06 02:06:16;;;;;;;0.73;0.63;;;11.60;99.90;;;;;;5061940;28;20260;-72
2021/11/06 02:08:43;;;;;;;0.80;0.70;;;11.60;99.90;;;;;;5056720;28;20846;-72
2021/11/06 02:11:10;;;;;;;1.60;0.60;;;11.50;99.90;;;;;;5060558;28;20498;-72
2021/11/06 02:13:37;;;;;;;1.20;0.57;;;11.50;99.90;;;;;;5055008;28;20189;-72
2021/11/06 02:16:05;;;;;;;0.70;0.40;;;11.50;99.90;;;;;;5059508;28;20705;-72
2021/11/06 02:18:33;;;;;;;0.40;0.40;;;11.50;99.90;;;;;;5060274;28;20504;-72
2021/11/06 02:21:04;;;;;;;0.50;0.50;;;11.40;99.90;;;;;;5058541;28;20201;-72
2021/11/06 02:23:34;;;;;;;0.50;0.50;;;11.40;99.90;;;;;;5057767;28;20219;-72
2021/11/06 02:26:01;;;;;;;0.60;0.50;;;11.40;99.90;;;;;;5057322;28;20216;-72
2021/11/06 02:28:28;;;;;;;0.50;0.40;;;11.40;99.90;;;;;;5054675;28;20196;-72
2021/11/06 02:30:56;;;;;;;1.70;0.70;;;11.30;99.90;;;;;;5054975;28;20295;-72
2021/11/06 02:33:23;;;;;;;2.83;0.50;;;11.40;99.90;;;;;;5052424;28;20250;-71
2021/11/06 02:35:50;;;;;;;0.40;0.33;;;11.40;99.90;;;;;;5054599;28;20201;-72
2021/11/06 02:38:18;;;;;;;0.30;0.30;;;11.30;99.90;;;;;;5052108;28;20193;-72
2021/11/06 02:40:45;;;;;;;0.33;0.33;;;11.30;99.90;;;;;;5049727;28;20190;-72
2021/11/06 02:43:13;;;;;;;0.30;0.30;;;11.30;99.90;;;;;;5049605;28;20215;-71
2021/11/06 02:45:40;;;;;;;0.40;0.40;;;11.40;99.90;;;;;;5066143;28;20197;-71
2021/11/06 02:48:07;;;;;;;0.50;0.50;;;11.40;99.90;;;;;;5065955;28;20294;-71
2021/11/06 02:50:34;;;;;;;1.43;0.50;;;11.40;99.90;;;;;;5063518;28;20203;-71
2021/11/06 02:53:03;;;;;;;0.53;0.40;;;11.40;99.90;;;;;;5058301;28;20212;-71
2021/11/06 02:55:32;;;;;;;1.33;0.50;;;11.40;99.90;;;;;;5061977;28;20201;-71
2021/11/06 02:57:59;;;;;;;1.37;0.50;;;11.40;99.90;;;;;;5054764;28;20298;-71
2021/11/06 03:00:28;;;;;;;0.53;0.40;;;11.40;99.90;;;;;;5059096;28;20189;-71
2021/11/06 03:02:55;;;;;;;1.47;0.47;;;11.40;99.90;;;;;;5061857;28;20596;-72
2021/11/06 03:05:24;;;;;;;0.90;0.60;;;11.40;99.90;;;;;;5048603;28;20217;-71
2021/11/06 03:07:51;;;;;;;0.33;0.33;;;11.40;99.90;;;;;;5061768;28;20309;-72
2021/11/06 03:10:18;;;;;;;1.30;0.43;;;11.40;99.90;;;;;;5059766;28;20201;-71
2021/11/06 03:12:48;;;;;;;0.30;0.30;;;11.40;99.90;;;;;;5062326;28;20561;-71
2021/11/06 03:15:15;;;;;;;0.50;0.43;;;11.40;99.90;;;;;;5060827;28;20579;-72
2021/11/06 03:17:42;;;;;;;0.73;0.50;;;11.50;99.90;;;;;;5057978;28;20704;-71
2021/11/06 03:20:12;;;;;;;0.77;0.57;;;11.50;99.90;;;;;;5054130;28;20205;-71
2021/11/06 03:22:39;;;;;;;0.90;0.50;;;11.50;99.90;;;;;;5055710;28;20734;-72
2021/11/06 03:25:07;;;;;;;1.33;0.40;;;11.50;99.90;;;;;;5051840;28;20226;-72
2021/11/06 03:27:34;;;;;;;0.40;0.30;;;11.40;99.90;;;;;;5054101;28;20308;-72
2021/11/06 03:30:05;;;;;;;0.40;0.40;;;11.40;99.90;;;;;;5047748;28;20222;-72
2021/11/06 03:32:32;;;;;;;0.33;0.33;;;11.40;99.90;;;;;;5049203;28;20487;-72
2021/11/06 03:34:59;;;;;;;0.40;0.40;;;11.40;99.90;;;;;;5050202;28;20215;-72
2021/11/06 03:37:26;;;;;;;0.40;0.33;;;11.40;99.90;;;;;;5051062;28;20634;-71
2021/11/06 03:39:53;;;;;;;1.83;0.50;;;11.30;99.90;;;;;;5046536;28;20197;-71
2021/11/06 03:42:20;;;;;;;1.43;0.60;;;11.30;99.90;;;;;;5052475;28;20728;-71
2021/11/06 03:44:47;;;;;;;1.10;0.50;;;11.20;99.90;;;;;;5066718;28;20209;-72
2021/11/06 03:47:15;;;;;;;0.50;0.40;;;11.20;99.90;;;;;;5063646;28;20223;-73
2021/11/06 03:49:42;;;;;;;2.03;0.73;;;11.20;99.90;;;;;;5064641;28;20598;-72
2021/11/06 03:52:09;;;;;;;0.67;0.43;;;11.10;99.90;;;;;;5053012;28;20214;-72
2021/11/06 03:54:36;;;;;;;1.70;0.70;;;11.10;99.90;;;;;;5065236;28;20217;-72
2021/11/06 03:57:04;;;;;;;1.20;0.60;;;11.10;99.90;;;;;;5051436;28;20644;-72
2021/11/06 03:59:31;;;;;;;0.40;0.40;;;11.00;99.90;;;;;;5063611;28;20202;-72
2021/11/06 04:01:58;;;;;;;3.30;0.50;;;11.00;99.90;;;;;;5056925;28;20202;-72
2021/11/06 04:04:26;;;;;;;1.07;0.57;;;11.00;99.90;;;;;;5063667;28;20197;-72
2021/11/06 04:06:53;;;;;;;2.27;0.60;;;11.00;99.90;;;;;;5055158;28;20290;-73
2021/11/06 04:09:20;;;;;;;0.83;0.60;;;11.00;99.90;;;;;;5060802;28;20194;-72
2021/11/06 04:11:47;;;;;;;0.87;0.57;;;11.00;99.90;;;;;;5052965;28;20319;-72
2021/11/06 04:14:14;;;;;;;0.90;0.50;;;11.00;99.90;;;;;;5058813;28;20234;-72
2021/11/06 04:16:41;;;;;;;0.53;0.30;;;11.00;99.90;;;;;;5049693;28;20308;-72
2021/11/06 04:19:10;;;;;;;0.40;0.40;;;11.00;99.90;;;;;;5058332;28;20632;-72
2021/11/06 04:21:40;;;;;;;0.50;0.33;;;11.00;99.90;;;;;;5049070;28;20969;-72
2021/11/06 04:24:08;;;;;;;0.53;0.50;;;11.00;99.90;;;;;;5057181;28;20223;-72
2021/11/06 04:26:35;;;;;;;1.37;0.60;;;11.00;99.90;;;;;;5047419;28;20210;-72
2021/11/06 04:29:02;;;;;;;2.77;0.70;;;11.00;99.90;;;;;;5052354;28;20330;-73
2021/11/06 04:31:29;;;;;;;1.03;0.50;;;11.00;99.90;;;;;;5045048;28;20281;-72
2021/11/06 04:33:56;;;;;;;0.67;0.60;;;11.10;99.90;;;;;;5054385;28;20212;-72
2021/11/06 04:36:23;;;;;;;0.87;0.50;;;11.10;99.90;;;;;;5041954;28;20698;-72
2021/11/06 04:38:51;;;;;;;2.60;0.73;;;11.10;99.90;;;;;;5054801;28;20195;-73
2021/11/06 04:41:18;;;;;;;0.83;0.50;;;11.10;99.90;;;;;;5048051;28;20209;-73
2021/11/06 04:43:46;;;;;;;2.13;0.50;;;11.20;99.90;;;;;;5059226;28;20695;-72
2021/11/06 04:46:13;;;;;;;1.33;0.53;;;11.20;99.90;;;;;;5065544;28;20994;-72
2021/11/06 04:48:39;;;;;;;1.10;0.50;;;11.20;99.90;;;;;;5062231;28;20305;-73
2021/11/06 04:51:07;;;;;;;0.40;0.37;;;11.20;99.90;;;;;;5058847;28;20203;-72
2021/11/06 04:53:34;;;;;;;1.07;0.40;;;11.20;99.90;;;;;;5056077;28;20224;-72
2021/11/06 04:56:02;;;;;;;0.63;0.50;;;11.20;99.90;;;;;;5059758;28;20227;-72
2021/11/06 04:58:29;;;;;;;0.50;0.50;;;11.20;99.90;;;;;;5056102;28;20196;-73
2021/11/06 05:00:56;;;;;;;1.57;0.60;;;11.20;99.90;;;;;;5043657;28;20207;-72
2021/11/06 05:03:23;;;;;;;0.60;0.50;;;11.30;99.90;;;;;;5058131;28;20593;-72
2021/11/06 05:05:50;;;;;;;0.70;0.40;;;11.20;99.90;;;;;;5054158;28;20294;-72
2021/11/06 05:08:17;;;;;;;0.50;0.50;;;11.30;99.90;;;;;;5060655;28;20729;-72
2021/11/06 05:10:44;;;;;;;1.93;0.77;;;11.40;99.90;;;;;;5066038;28;20208;-72
2021/11/06 05:13:13;;;;;;;1.27;0.67;;;11.40;99.90;;;;;;5054919;28;21023;-72
2021/11/06 05:15:40;;;;;;;1.17;0.70;;;11.30;99.90;;;;;;5060697;28;20331;-72
2021/11/06 05:18:09;;;;;;;1.97;0.83;;;11.40;99.90;;;;;;5054507;28;20197;-72
2021/11/06 05:20:37;;;;;;;1.47;0.50;;;11.40;99.90;;;;;;5061708;28;20197;-72
2021/11/06 05:23:05;;;;;;;1.23;0.73;;;11.40;99.90;;;;;;5052716;28;20697;-72
2021/11/06 05:25:32;;;;;;;0.60;0.57;;;11.40;99.90;;;;;;5059841;28;20291;-72
2021/11/06 05:27:59;;;;;;;1.07;0.50;;;11.40;99.90;;;;;;5049451;28;20340;-72
2021/11/06 05:30:27;;;;;;;0.50;0.47;;;11.40;99.90;;;;;;5059074;28;20304;-72
2021/11/06 05:32:54;;;;;;;1.43;0.73;;;11.40;99.90;;;;;;5046390;28;20206;-72
2021/11/06 05:35:21;;;;;;;0.87;0.57;;;11.30;99.90;;;;;;5058921;28;20218;-72
2021/11/06 05:37:48;;;;;;;0.57;0.40;;;11.40;99.90;;;;;;5045547;28;20312;-72
2021/11/06 05:40:15;;;;;;;0.50;0.50;;;11.40;99.90;;;;;;5055885;28;20631;-72
2021/11/06 05:42:42;;;;;;;0.40;0.40;;;11.40;99.90;;;;;;5054544;28;20262;-71
2021/11/06 05:45:10;;;;;;;0.30;0.30;;;11.40;99.90;;;;;;5069600;28;20220;-72
2021/11/06 05:47:39;;;;;;;0.40;0.40;;;11.40;99.90;;;;;;5066261;28;20229;-72
2021/11/06 05:50:09;;;;;;;0.63;0.50;;;11.40;99.90;;;;;;5066617;28;20207;-72
2021/11/06 05:52:36;;;;;;;0.73;0.60;;;11.40;99.90;;;;;;5058061;28;20208;-72
2021/11/06 05:55:04;;;;;;;0.63;0.60;;;11.40;99.90;;;;;;5064247;28;20209;-72
2021/11/06 05:57:32;;;;;;;0.83;0.50;;;11.40;99.90;;;;;;5060172;28;20548;-72
2021/11/06 05:59:59;;;;;;;2.27;0.60;;;11.40;99.90;;;;;;5063999;28;20207;-72
2021/11/06 06:02:26;;;;;;;0.80;0.50;;;11.40;99.90;;;;;;5065523;28;20276;-72
2021/11/06 06:04:55;;;;;;;2.77;0.70;;;11.40;99.90;;;;;;5053549;28;20206;-72
2021/11/06 06:07:22;;;;;;;2.60;0.80;;;11.40;99.90;;;;;;5064088;28;20224;-72
2021/11/06 06:09:48;;;;;;;1.10;0.53;;;11.40;99.90;;;;;;5059635;28;20211;-71
2021/11/06 06:12:15;;;;;;;3.10;0.80;;;11.50;99.90;;;;;;5061298;28;20323;-74
2021/11/06 06:14:42;;;;;;;1.10;0.40;;;11.40;99.90;;;;;;5058950;28;20571;-74
2021/11/06 06:17:10;;;;;;;1.53;1.00;;;11.40;99.90;;;;;;5062403;28;20256;-71
2021/11/06 06:19:37;;;;;;;1.03;0.87;;;11.40;99.90;;;;;;5058219;28;20213;-72
2021/11/06 06:22:05;;;;;;;1.77;0.80;;;11.40;99.90;;;;;;5060381;28;20647;-73
2021/11/06 06:24:32;;;;;;;2.43;0.60;;;11.40;99.90;;;;;;5056399;28;20875;-72
2021/11/06 06:26:59;;;;;;;1.37;0.60;;;11.40;99.90;;;;;;5060074;28;20202;-72
2021/11/06 06:29:26;;;;;;;1.70;0.57;;;11.40;99.90;;;;;;5051261;28;20204;-72
2021/11/06 06:31:53;;;;;;;1.10;0.53;;;11.40;99.90;;;;;;5053399;28;20208;-72
2021/11/06 06:34:20;;;;;;;1.00;0.60;;;11.40;99.90;;;;;;5046769;28;20201;-72
2021/11/06 06:36:47;;;;;;;2.27;0.80;;;11.40;99.90;;;;;;5053023;28;20193;-72
2021/11/06 06:39:15;;;;;;;1.10;0.70;;;11.40;99.90;;;;;;5046970;28;20568;-72
2021/11/06 06:41:43;;;;;;;1.70;0.80;;;11.50;99.90;;;;;;5047365;28;20667;-72
2021/11/06 06:44:10;;;;;;;0.40;0.40;;;11.50;99.90;;;;;;5063858;28;20282;-72
2021/11/06 06:46:38;;;;;;;1.63;0.83;;;11.50;99.90;;;;;;5066571;28;20660;-72
2021/11/06 06:49:04;;;;;;;1.07;0.70;;;11.50;99.90;;;;;;5066123;28;20653;-72
2021/11/06 06:51:31;;;;;;;3.53;1.10;;;11.50;99.90;;;;;;5058805;28;20638;-73
2021/11/06 06:53:58;;;;;;;1.03;0.57;;;11.50;99.90;;;;;;5060693;28;20225;-72
2021/11/06 06:56:27;;;;;;;3.43;0.83;;;11.60;99.90;;;;;;5053091;28;20202;-72
2021/11/06 06:58:54;;;;;;;2.10;0.80;;;11.60;99.90;;;;;;5058154;28;20676;-72
2021/11/06 07:01:21;;;;;;;1.03;0.60;;;11.60;99.90;;;;;;5063167;28;20200;-72
2021/11/06 07:03:48;;;;;;;1.10;0.83;;;11.60;99.90;;;;;;5055583;28;20300;-73
2021/11/06 07:06:15;;;;;;;4.30;0.90;;;11.60;99.90;;;;;;5062632;28;20300;-72
2021/11/06 07:08:42;;;;;;;2.47;0.83;;;11.60;99.90;;;;;;5063184;28;20344;-72
2021/11/06 07:11:09;;;;;;;1.13;0.60;;;11.70;99.90;;;;;;5061757;28;20649;-73
2021/11/06 07:13:38;;;;;;;1.13;0.70;;;11.70;99.90;;;;;;5053803;28;20705;-73
2021/11/06 07:16:06;;;;;;;0.40;0.40;;;11.70;99.90;;;;;;5056891;28;20229;-73
2021/11/06 07:18:33;;;;;;;0.97;0.60;;;11.80;99.90;;;;;;5051368;28;20205;-72
2021/11/06 07:21:00;;;;;;;0.80;0.63;;;11.80;99.90;;;;;;5053870;28;20198;-73
2021/11/06 07:23:27;;;;;;;0.70;0.50;;;11.90;99.90;;;;;;5050277;28;20527;-73
2021/11/06 07:25:59;;;;;;;0.80;0.50;;;11.90;99.90;;;;;;5053157;28;20613;-73
2021/11/06 07:28:26;;;;;;;0.50;0.50;;;11.90;99.90;;;;;;5054941;28;20720;-73
2021/11/06 07:30:55;;;;;;;0.30;0.30;;;11.90;99.90;;;;;;5046087;28;20210;-73
2021/11/06 07:33:22;;;;;;;0.40;0.40;;;11.90;99.90;;;;;;5052078;28;20275;-73
2021/11/06 07:35:49;;;;;;;0.40;0.40;;;12.00;99.90;;;;;;5048919;28;20697;-73
2021/11/06 07:38:17;;;;;;;1.00;0.40;;;11.90;99.90;;;;;;5050821;28;20608;-73
2021/11/06 07:40:44;;;;;;;0.50;0.50;;;12.00;99.90;;;;;;5045582;28;20225;-72
2021/11/06 07:43:12;;;;;;;0.50;0.50;;;12.00;99.90;;;;;;5046767;28;20207;-72
2021/11/06 07:45:40;;;;;;;0.40;0.40;;;12.00;99.90;;;;;;5064307;28;20209;-72
2021/11/06 07:48:12;;;;;;;0.40;0.40;;;12.10;99.90;;;;;;5066086;28;20205;-72
2021/11/06 07:50:39;;;;;;;0.73;0.37;;;12.20;99.90;;;;;;5064109;28;20288;-72
2021/11/06 07:53:06;;;;;;;1.03;0.60;;;12.30;99.90;;;;;;5056920;28;20201;-72
2021/11/06 07:55:33;;;;;;;0.60;0.60;;;12.40;99.90;;;;;;5058976;28;20210;-72
2021/11/06 07:58:00;;;;;;;1.03;0.57;;;12.40;99.90;;;;;;5056658;28;20280;-72
2021/11/06 08:00:27;;;;;;;0.93;0.73;;;12.50;99.90;;;;;;5059587;28;20223;-72
2021/11/06 08:02:55;;;;;;;0.80;0.73;;;12.50;99.90;;;;;;5062093;28;20201;-72
2021/11/06 08:05:23;;;;;;;1.60;0.80;;;12.60;99.90;;;;;;5056171;28;20567;-72
2021/11/06 08:07:50;;;;;;;2.13;0.83;;;12.50;99.90;;;;;;5060363;28;20213;-72
2021/11/06 08:10:17;;;;;;;1.30;0.73;;;12.60;99.90;;;;;;5052737;28;20289;-72
2021/11/06 08:12:45;;;;;;;0.70;0.60;;;12.60;99.90;;;;;;5059273;28;20645;-72
2021/11/06 08:15:14;;;;;;;0.80;0.60;;;12.80;99.90;;;;;;5055079;28;20196;-72
2021/11/06 08:17:42;;;;;;;0.50;0.50;;;12.80;99.90;;;;;;5060093;28;20732;-72
2021/11/06 08:20:10;;;;;;;0.70;0.70;;;12.80;99.90;;;;;;5057882;28;20196;-73
2021/11/06 08:22:39;;;;;;;1.30;0.80;;;12.80;99.90;;;;;;5059411;28;20720;-72
2021/11/06 08:25:09;;;;;;;1.33;0.60;;;12.80;99.90;;;;;;5057512;28;20221;-72
2021/11/06 08:27:36;;;;;;;1.30;0.80;;;12.80;99.90;;;;;;5055753;28;20585;-72
2021/11/06 08:30:04;;;;;;;0.57;0.57;;;12.80;99.90;;;;;;5051070;28;20863;-73
2021/11/06 08:32:31;;;;;;;0.50;0.50;;;12.80;99.90;;;;;;5054701;28;20247;-73
2021/11/06 08:34:58;;;;;;;0.50;0.50;;;12.80;99.90;;;;;;5056865;28;20668;-72
2021/11/06 08:37:25;;;;;;;0.80;0.60;;;12.90;99.90;;;;;;5058883;28;20613;-73
2021/11/06 08:39:54;;;;;;;1.23;0.70;;;12.90;99.90;;;;;;5057992;28;20253;-73
2021/11/06 08:42:21;;;;;;;1.40;0.90;;;12.90;99.90;;;;;;5042841;28;20197;-73
2021/11/06 08:44:48;;;;;;;0.80;0.70;;;12.90;99.90;;;;;;5069068;28;20201;-73
2021/11/06 08:47:15;;;;;;;0.50;0.50;;;13.00;99.90;;;;;;5067736;28;20193;-72
2021/11/06 08:49:44;;;;;;;0.67;0.67;;;12.90;99.90;;;;;;5068842;28;20316;-73
2021/11/06 08:52:11;;;;;;;0.90;0.80;;;12.90;99.90;;;;;;5057043;28;20538;-73
2021/11/06 08:54:38;;;;;;;0.87;0.60;;;12.90;99.90;;;;;;5068454;28;20229;-73
2021/11/06 08:57:07;;;;;;;0.77;0.70;;;12.90;99.90;;;;;;5053143;28;20233;-72
2021/11/06 08:59:34;;;;;;;0.73;0.70;;;13.10;99.90;;;;;;5065245;28;20206;-73
2021/11/06 09:02:01;;;;;;;0.60;0.60;;;13.10;99.90;;;;;;5059434;28;20211;-72
2021/11/06 09:04:28;;;;;;;2.43;0.90;;;13.20;99.90;;;;;;5056059;28;20282;-73
2021/11/06 09:06:55;;;;;;;3.10;0.93;;;13.30;99.90;;;;;;5056885;28;20201;-73
2021/11/06 09:09:23;;;;;;;0.60;0.60;;;13.30;99.90;;;;;;5065752;28;20229;-73
2021/11/06 09:11:53;;;;;;;0.90;0.90;;;13.30;99.90;;;;;;5058351;28;20216;-72
2021/11/06 09:14:22;;;;;;;0.80;0.80;;;13.40;99.90;;;;;;5062192;28;20711;-72
2021/11/06 09:16:50;;;;;;;0.60;0.60;;;13.50;99.90;;;;;;5052350;28;20295;-73
2021/11/06 09:19:17;;;;;;;0.80;0.63;;;13.50;99.90;;;;;;5054618;28;20183;-73
2021/11/06 09:21:46;;;;;;;0.70;0.70;;;13.50;99.90;;;;;;5055189;28;20217;-72
2021/11/06 09:24:14;;;;;;;0.70;0.60;;;13.50;99.90;;;;;;5056345;28;20225;-72
2021/11/06 09:26:43;;;;;;;2.07;0.93;;;13.40;99.90;;;;;;5048526;28;20687;-73
2021/11/06 09:29:11;;;;;;;1.07;0.90;;;13.40;99.90;;;;;;5054233;28;20663;-73
2021/11/06 09:31:41;;;;;;;0.80;0.60;;;13.40;99.90;;;;;;5048680;28;20199;-73
2021/11/06 09:34:10;;;;;;;0.83;0.73;;;13.30;99.90;;;;;;5051168;28;20585;-73
2021/11/06 09:36:38;;;;;;;1.23;0.60;;;13.30;99.90;;;;;;5050425;28;20303;-73
2021/11/06 09:39:08;;;;;;;0.60;0.60;;;13.30;99.90;;;;;;5050331;28;20680;-73
2021/11/06 09:41:35;;;;;;;1.30;0.90;;;13.20;99.90;;;;;;5043660;28;20775;-73
2021/11/06 09:44:03;;;;;;;1.40;0.93;;;13.20;99.90;;;;;;5061522;28;20226;-73
2021/11/06 09:46:30;;;;;;;0.80;0.80;;;13.20;99.90;;;;;;5068618;28;20204;-72
2021/11/06 09:48:58;;;;;;;2.27;1.07;;;13.30;99.90;;;;;;5066193;28;20203;-73
2021/11/06 09:51:25;;;;;;;2.87;1.63;;;13.40;99.90;;;;;;5060969;28;20272;-73
2021/11/06 09:53:55;;;;;;;4.00;1.97;;;13.40;99.90;;;;;;5063817;28;20290;-72
2021/11/06 09:56:24;;;;;;;3.90;1.50;;;13.40;99.90;;;;;;5059786;28;20835;-72
2021/11/06 09:58:54;;;;;;;1.00;0.80;;;13.40;99.90;;;;;;5063509;28;20198;-73
2021/11/06 10:01:21;;;;;;;3.93;1.00;;;13.40;99.90;;;;;;5066237;28;20651;-73
2021/11/06 10:03:49;;;;;;;0.90;0.90;;;13.40;99.90;;;;;;5052852;28;20211;-73
2021/11/06 10:06:21;;;;;;;1.53;1.00;;;13.30;99.90;;;;;;5051532;28;20617;-73
2021/11/06 10:08:51;;;;;;;2.70;0.80;;;13.30;99.90;;;;;;5058791;28;20770;-73
2021/11/06 10:11:19;;;;;;;0.70;0.70;;;13.30;99.90;;;;;;5058501;28;20222;-73
2021/11/06 10:13:55;;;;;;;1.20;0.90;;;13.50;99.90;;;;;;5057577;28;20199;-74
2021/11/06 10:16:31;;;;;;;1.63;1.00;;;13.80;99.90;;;;;;5053757;28;20318;-73
2021/11/06 10:19:07;;;;;;;1.80;1.17;;;13.90;99.90;;;;;;5041766;28;20233;-73
2021/11/06 10:21:36;;;;;;;1.30;0.90;;;14.10;99.90;;;;;;5048636;28;20325;-73
2021/11/06 10:24:03;;;;;;;2.10;0.70;;;14.20;99.90;;;;;;5059143;28;20678;-73
2021/11/06 10:26:30;;;;;;;1.33;0.97;;;14.30;99.90;;;;;;5045589;28;20205;-73
2021/11/06 10:29:09;;;;;;;1.43;1.00;;;14.50;99.90;;;;;;5051943;28;20304;-73
2021/11/06 10:31:55;;;;;;;2.20;0.87;;;14.70;99.90;;;;;;5061231;28;20260;-73
2021/11/06 10:34:23;;;;;;;1.00;0.90;;;14.70;99.90;;;;;;5045933;28;20241;-73
2021/11/06 10:36:58;;;;;;;3.03;1.00;;;14.70;99.90;;;;;;5052321;28;20204;-73
2021/11/06 10:39:25;;;;;;;3.17;1.40;;;14.80;99.90;;;;;;5044516;28;20289;-73
2021/11/06 10:41:52;;;;;;;3.13;1.30;;;14.80;99.90;;;;;;5041353;28;20198;-73
2021/11/06 10:44:20;;;;;;;3.40;1.40;;;14.70;99.90;;;;;;5066593;28;20734;-73
2021/11/06 10:46:52;;;;;;;2.67;1.20;;;14.60;99.90;;;;;;5067571;28;20553;-73
2021/11/06 10:49:37;;;;;;;1.93;1.00;;;14.40;99.90;;;;;;5053771;28;20228;-73
2021/11/06 10:52:07;;;;;;;1.90;1.07;;;14.30;99.90;;;;;;5053869;28;20253;-73
2021/11/06 10:54:35;;;;;;;1.33;1.00;;;14.20;99.90;;;;;;5066268;28;20556;-73
2021/11/06 10:57:03;;;;;;;1.00;0.90;;;14.10;99.90;;;;;;5050746;28;20741;-72
2021/11/06 10:59:31;;;;;;;1.37;0.90;;;14.00;99.90;;;;;;5063304;28;20203;-72
2021/11/06 11:01:58;;;;;;;1.60;1.10;;;14.00;99.90;;;;;;5057940;28;20213;-72
2021/11/06 11:04:36;;;;;;;1.23;0.87;;;13.90;99.90;;;;;;5063904;28;20247;-73
2021/11/06 11:07:04;;;;;;;1.10;0.70;;;14.00;99.90;;;;;;5055801;28;20242;-73
2021/11/06 11:09:37;;;;;;;1.47;1.17;;;14.10;99.90;;;;;;5066070;28;20584;-73
2021/11/06 11:12:14;;;;;;;1.77;1.00;;;14.20;99.90;;;;;;5058722;28;20645;-73
2021/11/06 11:14:53;;;;;;;0.67;0.67;;;14.20;99.90;;;;;;5051495;28;20215;-73
2021/11/06 11:17:40;;;;;;;1.37;1.07;;;14.30;99.90;;;;;;5056337;28;20240;-73
2021/11/06 11:20:23;;;;;;;4.30;0.90;;;14.30;99.90;;;;;;5051849;28;20293;-73
2021/11/06 11:23:08;;;;;;;1.43;0.90;;;14.30;99.90;;;;;;5055793;28;20207;-73
2021/11/06 11:25:36;;;;;;;6.33;1.30;;;14.30;99.90;;;;;;5046454;28;20225;-73
2021/11/06 11:28:03;;;;;;;1.77;1.20;;;14.20;99.90;;;;;;5049421;28;20223;-73
2021/11/06 11:30:31;;;;;;;2.30;1.50;;;14.30;99.90;;;;;;5056917;28;20595;-73
2021/11/06 11:33:00;;;;;;;1.20;0.90;;;14.20;99.90;;;;;;5044771;28;20275;-73
2021/11/06 11:35:27;;;;;;;2.10;1.20;;;14.10;99.90;;;;;;5056844;28;20664;-73
2021/11/06 11:37:56;;;;;;;2.40;1.00;;;14.10;99.90;;;;;;5043538;28;20202;-73
2021/11/06 11:40:28;;;;;;;1.87;1.10;;;14.00;99.90;;;;;;5052688;28;20201;-73
2021/11/06 11:43:06;;;;;;;2.33;1.10;;;14.10;99.90;;;;;;5042847;28;20295;-73
2021/11/06 11:45:40;;;;;;;1.77;1.10;;;14.10;99.90;;;;;;5063727;28;20274;-73
2021/11/06 11:48:11;;;;;;;1.93;1.20;;;14.20;99.90;;;;;;5064301;28;20217;-73
2021/11/06 11:50:41;;;;;;;2.40;1.43;;;14.20;99.90;;;;;;5064444;28;20221;-73
2021/11/06 11:53:12;;;;;;;2.87;1.23;;;14.20;99.90;;;;;;5059805;28;20219;-73
2021/11/06 11:55:44;;;;;;;2.83;1.53;;;14.10;99.90;;;;;;5057096;28;20212;-71
2021/11/06 11:58:15;;;;;;;3.53;1.50;;;14.10;99.90;;;;;;5053372;28;20226;-72
2021/11/06 12:00:48;;;;;;;2.43;1.47;;;14.10;99.90;;;;;;5059976;28;20291;-72
2021/11/06 12:03:27;;;;;;;6.50;1.43;;;14.00;99.90;;;;;;5056150;28;20191;-72
2021/11/06 12:05:55;;;;;;;2.30;1.20;;;14.10;99.90;;;;;;5051129;28;20210;-72
2021/11/06 12:08:35;;;;;;;2.30;0.93;;;14.20;99.90;;;;;;5049081;28;20300;-73
2021/11/06 12:11:20;;;;;;;1.50;1.20;;;14.20;99.90;;;;;;5060656;28;20214;-72
2021/11/06 12:13:50;;;;;;;1.50;1.10;;;14.30;99.90;;;;;;5058056;28;20204;-72
2021/11/06 12:16:20;;;;;;;1.03;0.93;;;14.30;99.90;;;;;;5055139;28;20332;-72
2021/11/06 12:18:50;;;;;;;4.50;1.50;;;14.30;99.90;;;;;;5058944;28;20689;-72
2021/11/06 12:21:36;;;;;;;2.07;1.20;;;14.20;99.90;;;;;;5053132;28;20203;-72
2021/11/06 12:24:33;;;;;;;2.23;1.10;;;14.10;99.90;;;;;;5053415;28;20678;-72
2021/11/06 12:27:04;;;;;;;4.30;1.63;;;14.10;99.90;;;;;;4981202;28;20297;-72
2021/11/06 12:29:34;;;;;;;2.07;1.27;;;14.10;99.90;;;;;;5006582;28;20577;-72
2021/11/06 12:32:31;;;;;;;1.17;1.07;;;14.10;99.90;;;;;;4980260;28;20658;-72
2021/11/06 12:35:01;;;;;;;1.27;1.00;;;14.20;99.90;;;;;;4992773;28;20207;-73
2021/11/06 12:37:52;;;;;;;3.47;1.40;;;14.20;99.90;;;;;;4979251;28;20755;-73
2021/11/06 12:40:38;;;;;;;4.90;1.37;;;14.20;99.90;;;;;;4981845;28;20291;-73
2021/11/06 12:43:16;;;;;;;2.97;1.20;;;14.30;99.90;;;;;;4982370;28;20333;-73
2021/11/06 12:45:46;;;;;;;3.33;1.27;;;14.40;99.90;;;;;;4979279;28;20205;-73
2021/11/06 12:48:15;;;;;;;2.00;1.20;;;14.40;99.90;;;;;;5007757;28;20662;-73
2021/11/06 12:50:43;;;;;;;1.13;0.90;;;14.50;99.90;;;;;;4978948;28;20931;-73
2021/11/06 12:53:11;;;;;;;1.57;1.07;;;14.50;99.90;;;;;;4981961;28;20207;-73
2021/11/06 12:55:38;;;;;;;1.23;1.00;;;14.50;99.90;;;;;;5005202;28;20234;-73